Dr. Babasaheb Ambedkar International Airport
VANP : now visible

Airfield :











YOU CAN JOIN US ON...

 
LOGIN :

Register | Disclaimer

   EN    FR    IT 

 









Legend :    VFR   Marginal VFR   IFR   Intensive IFR   Very Intensive IFR
Visi :
Ceiling :
>= 8 km
>= 3000ft
5 to 8 km
1000 to 3000 ft
1500m to 5 km
500 to 1000 ft
800 to 1500m
200 to 500 ft
< 800m
< 200 ft
Symbols :   Thunderstorms  Fog  Heavy snow  Heavy precipitations  Wind > 20 kt






- Airport Elevation : 1033 ft
- IATA code : NAG


VANP - Dr. Babasaheb Ambedkar International

CURRENT METAR :
  • 241200Z 20003KT 4000 HZ SCT020 FEW030CB 30/15 Q1010 NOSIG

EXPIRED METARs :
  • 241130Z 19003KT 4000 HZ SCT020 FEW030CB 30/15 Q1010 NOSIG
  • 241100Z 22006KT 4000 HZ SCT020 FEW030CB 31/14 Q1010 NOSIG
  • 241030Z 19005KT 4000 HZ FEW020 SCT025 FEW030CB 31/16 Q1010 NOSIG
  • 241000Z 20006KT 4000 HZ FEW020 SCT025 31/15 Q1010 NOSIG
  • 240930Z 20010KT 4000 HZ FEW020 SCT025 31/15 Q1011 NOSIG

TAF TAF VANP
Valid from the 24 at 12:00 until the 25 at 18:00 UTC


241100Z 2412/2518 17006KT 4000 HZ FEW020 FEW030CB SCT100
BECMG 2418/2420 02006KT 3000 HZ FEW020 SCT100
BECMG 2500/2502 03006KT 1500 BR FEW020 SCT100
BECMG 2506/2508 34005KT 4000 HZ FEW025 SCT100
BECMG 2512/2514 02006KT 3000 HZ FEW020 SCT100



MET'MAP, your aeronautical weather chart ! - Copyright ORBIFLY December 2007 - Disclaimer

ORBIFLY MET'MAP TEAM :

Programming & Development : Alexandra Zaïnal
Concept & original design : Baudouin d'Aumeries
Assistance for programming : Marc-Olivier Méhu
Technical & hardware support : Manuel Goepfert

Contact : metmap@orbifly.com




SOURCES & CREDITS :

   NOAA       Earth
Advisory